createdAt,value
2023-09-13T00:01:37.666Z,1003.98
2023-09-13T00:04:45.443Z,1003.78
2023-09-13T00:07:54.150Z,1003.71
2023-09-13T00:11:01.335Z,1003.46
2023-09-13T00:14:02.154Z,1003.18
2023-09-13T00:17:10.908Z,1002.37
2023-09-13T00:20:18.968Z,1002.09
2023-09-13T00:23:27.199Z,1002.52
2023-09-13T00:26:35.712Z,1002.70
2023-09-13T00:29:43.504Z,1002.89
2023-09-13T00:32:50.935Z,1003.13
2023-09-13T00:35:58.784Z,1003.29
2023-09-13T00:39:07.768Z,1003.30
2023-09-13T00:42:15.215Z,1003.41
2023-09-13T00:45:22.864Z,1003.46
2023-09-13T00:48:31.803Z,1003.51
2023-09-13T00:51:39.312Z,1003.41
2023-09-13T00:54:46.500Z,1003.44
2023-09-13T00:57:55.091Z,1003.30
2023-09-13T01:01:02.579Z,1003.36
2023-09-13T01:04:10.007Z,1003.33
2023-09-13T01:07:19.229Z,1003.31
2023-09-13T01:10:26.836Z,1003.33
2023-09-13T01:13:33.927Z,1003.35
2023-09-13T01:16:41.426Z,1003.29
2023-09-13T01:19:50.379Z,1003.36
2023-09-13T01:22:57.908Z,1003.44
2023-09-13T01:26:04.785Z,1003.46
2023-09-13T01:29:13.995Z,1003.50
2023-09-13T01:32:21.588Z,1003.44
2023-09-13T01:35:29.204Z,1003.40
2023-09-13T01:38:38.649Z,1003.32
2023-09-13T01:41:45.595Z,1003.26
2023-09-13T01:44:53.936Z,1003.23
2023-09-13T01:48:02.949Z,1003.23
2023-09-13T01:51:10.218Z,1003.17
2023-09-13T01:54:17.812Z,1003.07
2023-09-13T01:57:26.312Z,1003.00
2023-09-13T02:00:33.218Z,1003.18
2023-09-13T02:03:40.815Z,1003.05
2023-09-13T02:06:48.406Z,1002.96
2023-09-13T02:09:56.658Z,1003.11
2023-09-13T02:13:05.117Z,1003.00
2023-09-13T02:16:12.019Z,1002.87
2023-09-13T02:19:21.116Z,1002.70
2023-09-13T02:22:28.733Z,1002.70
2023-09-13T02:25:36.395Z,1002.70
2023-09-13T02:28:44.665Z,1002.82
2023-09-13T02:31:52.289Z,1002.89
2023-09-13T02:35:00.395Z,1002.99
2023-09-13T02:38:08.988Z,1002.98
2023-09-13T02:41:17.156Z,1002.93
2023-09-13T02:44:24.611Z,1002.93
2023-09-13T02:47:31.830Z,1002.90
2023-09-13T02:50:41.096Z,1002.88
2023-09-13T02:53:48.710Z,1002.86
2023-09-13T02:56:56.312Z,1002.86
2023-09-13T03:00:05.098Z,1002.98
2023-09-13T03:03:13.303Z,1003.04
2023-09-13T03:06:20.655Z,1003.07
2023-09-13T03:09:30.783Z,1003.07
2023-09-13T03:12:38.184Z,1003.06
2023-09-13T03:15:45.381Z,1003.07
2023-09-13T03:18:54.742Z,1003.13
2023-09-13T03:22:01.854Z,1003.02
2023-09-13T03:25:09.606Z,1003.00
2023-09-13T03:28:18.106Z,1002.97
2023-09-13T03:31:27.704Z,1002.99
2023-09-13T03:34:34.940Z,1002.96
2023-09-13T03:37:42.181Z,1003.06
2023-09-13T03:40:51.220Z,1003.02
2023-09-13T03:43:58.500Z,1003.11
2023-09-13T03:47:05.774Z,1003.08
2023-09-13T03:50:14.349Z,1003.18
2023-09-13T03:53:21.452Z,1003.14
2023-09-13T03:56:29.463Z,1003.15
2023-09-13T03:59:38.253Z,1003.12
2023-09-13T04:02:45.606Z,1003.16
2023-09-13T04:05:53.918Z,1003.21
2023-09-13T04:09:01.384Z,1003.21
2023-09-13T04:12:10.206Z,1003.24
2023-09-13T04:15:17.587Z,1003.30
2023-09-13T04:18:25.301Z,1003.30
2023-09-13T04:21:33.505Z,1003.38
2023-09-13T04:24:40.816Z,1003.44
2023-09-13T04:27:48.094Z,1003.36
2023-09-13T04:30:56.788Z,1003.43
2023-09-13T04:34:05.241Z,1003.40
2023-09-13T04:37:12.115Z,1003.32
2023-09-13T04:40:21.313Z,1003.37
2023-09-13T04:43:28.749Z,1003.46
2023-09-13T04:46:35.611Z,1003.50
2023-09-13T04:49:44.737Z,1003.56
2023-09-13T04:52:51.961Z,1003.56
2023-09-13T04:55:59.642Z,1003.59
2023-09-13T04:59:06.421Z,1003.43
2023-09-13T05:02:16.005Z,1003.45
2023-09-13T05:05:23.720Z,1003.48
2023-09-13T05:08:31.241Z,1003.62
2023-09-13T05:11:40.134Z,1003.61
2023-09-13T05:14:47.256Z,1003.68
2023-09-13T05:17:54.940Z,1003.67
2023-09-13T05:21:03.800Z,1003.67
2023-09-13T05:24:11.261Z,1003.74
2023-09-13T05:27:19.067Z,1003.77
2023-09-13T05:30:28.460Z,1003.80
2023-09-13T05:33:36.679Z,1003.81
2023-09-13T05:36:44.376Z,1003.78
2023-09-13T05:39:52.365Z,1003.84
2023-09-13T05:43:01.519Z,1003.84
2023-09-13T05:46:08.927Z,1003.86
2023-09-13T05:49:16.031Z,1003.92
2023-09-13T05:52:25.289Z,1003.88
2023-09-13T05:55:33.183Z,1003.98
2023-09-13T05:58:40.623Z,1003.89
2023-09-13T06:01:49.993Z,1003.95
2023-09-13T06:04:57.650Z,1003.90
2023-09-13T06:08:05.285Z,1003.91
2023-09-13T06:11:14.347Z,1003.98
2023-09-13T06:14:23.938Z,1003.96
2023-09-13T06:17:30.958Z,1004.01
2023-09-13T06:20:39.354Z,1003.98
2023-09-13T06:23:48.822Z,1004.05
2023-09-13T06:26:56.263Z,1003.98
2023-09-13T06:30:03.764Z,1004.06
2023-09-13T06:33:13.468Z,1004.07
2023-09-13T06:36:21.793Z,1004.11
2023-09-13T06:39:30.185Z,1004.14
2023-09-13T06:42:53.629Z,1004.17
2023-09-13T06:45:57.705Z,1004.29
2023-09-13T06:48:50.781Z,1004.31
2023-09-13T06:52:01.313Z,1004.37
2023-09-13T06:55:03.509Z,1004.42
2023-09-13T06:58:03.622Z,1004.42
2023-09-13T07:04:09.356Z,1004.43
2023-09-13T07:07:07.460Z,1004.40
2023-09-13T07:10:15.243Z,1004.51
2023-09-13T07:13:24.417Z,1004.46
2023-09-13T07:16:32.551Z,1004.63
2023-09-13T07:19:39.859Z,1004.64
2023-09-13T07:22:49.611Z,1004.76
2023-09-13T07:25:56.588Z,1004.73
2023-09-13T07:29:04.761Z,1004.74
2023-09-13T07:32:14.709Z,1004.75
2023-09-13T07:35:22.266Z,1004.75
2023-09-13T07:38:29.950Z,1004.74
2023-09-13T07:41:39.944Z,1004.83
2023-09-13T07:44:48.575Z,1004.91
2023-09-13T07:47:56.665Z,1004.88
2023-09-13T07:51:04.400Z,1004.91
2023-09-13T07:54:13.074Z,1004.87
2023-09-13T07:57:20.465Z,1004.86
2023-09-13T08:00:28.881Z,1004.83
2023-09-13T08:03:38.101Z,1004.95
2023-09-13T08:06:46.462Z,1004.97
2023-09-13T08:09:53.730Z,1004.99
2023-09-13T08:13:02.706Z,1005.07
2023-09-13T08:16:10.423Z,1005.14
2023-09-13T08:19:17.798Z,1005.21
2023-09-13T08:22:38.442Z,1005.17
2023-09-13T08:25:33.238Z,1005.19
2023-09-13T08:28:41.368Z,1005.25
2023-09-13T08:31:50.221Z,1005.24
2023-09-13T08:34:58.981Z,1005.32
2023-09-13T08:38:06.598Z,1005.30
2023-09-13T08:41:14.397Z,1005.37
2023-09-13T08:44:23.427Z,1005.46
2023-09-13T08:47:42.699Z,1005.43
2023-09-13T08:50:35.568Z,1005.48
2023-09-13T08:53:44.871Z,1005.55
2023-09-13T08:56:51.846Z,1005.62
2023-09-13T09:00:00.019Z,1005.64
2023-09-13T09:03:09.148Z,1005.73
2023-09-13T09:06:17.297Z,1005.75
2023-09-13T09:09:25.407Z,1005.68
2023-09-13T09:12:33.175Z,1005.69
2023-09-13T09:15:42.171Z,1005.63
2023-09-13T09:16:46.919Z,1005.66
2023-09-13T09:19:55.137Z,1005.71
2023-09-13T09:23:04.299Z,1005.77
2023-09-13T09:26:11.289Z,1005.82
2023-09-13T09:29:18.838Z,1005.82
2023-09-13T09:32:26.504Z,1005.87
2023-09-13T09:35:35.443Z,1005.79
2023-09-13T09:38:43.413Z,1005.74
2023-09-13T09:41:51.116Z,1005.66
2023-09-13T09:44:59.949Z,1005.67
2023-09-13T09:48:07.759Z,1005.73
2023-09-13T09:51:15.676Z,1005.73
2023-09-13T09:54:25.021Z,1005.82
2023-09-13T09:57:32.364Z,1005.70
2023-09-13T10:00:40.040Z,1005.81
2023-09-13T10:03:50.630Z,1005.69
2023-09-13T10:06:57.681Z,1005.71
2023-09-13T10:10:05.772Z,1005.71
2023-09-13T10:13:12.501Z,1005.77
2023-09-13T10:16:22.004Z,1005.71
2023-09-13T10:19:29.616Z,1005.78
2023-09-13T10:22:36.942Z,1005.76
2023-09-13T10:25:46.150Z,1005.73
2023-09-13T10:28:54.325Z,1005.79
2023-09-13T10:32:01.137Z,1005.84
2023-09-13T10:35:11.025Z,1005.90
2023-09-13T10:38:18.724Z,1005.93
2023-09-13T10:41:25.992Z,1005.95
2023-09-13T10:44:34.850Z,1005.94
2023-09-13T10:47:41.983Z,1005.82
2023-09-13T10:50:49.877Z,1005.86
2023-09-13T10:53:57.267Z,1005.89
2023-09-13T10:57:06.535Z,1005.87
2023-09-13T11:00:13.271Z,1005.88
2023-09-13T11:03:21.312Z,1005.85
2023-09-13T11:06:30.058Z,1005.91
2023-09-13T11:09:37.324Z,1005.96
2023-09-13T11:12:44.890Z,1005.93
2023-09-13T11:15:53.596Z,1005.96
2023-09-13T11:19:01.357Z,1005.96
2023-09-13T11:22:08.986Z,1006.04
2023-09-13T11:25:30.643Z,1006.12
2023-09-13T11:28:22.756Z,1006.23
2023-09-13T11:31:26.676Z,1006.35
2023-09-13T11:34:34.377Z,1006.51
2023-09-13T11:37:43.683Z,1006.61
2023-09-13T11:40:51.198Z,1006.61
2023-09-13T11:44:04.249Z,1006.61
2023-09-13T11:47:03.716Z,1006.58
2023-09-13T11:50:13.972Z,1006.76
2023-09-13T11:53:12.894Z,1006.86
2023-09-13T11:56:40.024Z,1006.85
2023-09-13T11:59:31.209Z,1006.89
2023-09-13T12:02:40.844Z,1006.94
2023-09-13T12:05:29.613Z,1006.99
2023-09-13T12:08:26.786Z,1007.02
2023-09-13T12:11:32.956Z,1007.02
2023-09-13T12:14:53.711Z,1007.06
2023-09-13T12:17:39.721Z,1007.06
2023-09-13T12:20:40.275Z,1007.08
2023-09-13T12:23:48.495Z,1007.01
2023-09-13T12:26:36.781Z,1007.04
2023-09-13T12:29:45.649Z,1007.00
2023-09-13T12:32:53.761Z,1007.00
2023-09-13T12:36:01.669Z,1007.03
2023-09-13T12:39:11.082Z,1007.22
2023-09-13T12:42:15.055Z,1007.26
2023-09-13T12:45:23.245Z,1007.25
2023-09-13T12:48:29.633Z,1007.24
2023-09-13T12:51:37.592Z,1007.28
2023-09-13T12:54:46.150Z,1007.36
2023-09-13T12:57:55.819Z,1007.39
2023-09-13T13:00:55.963Z,1007.39
2023-09-13T13:04:06.394Z,1007.44
2023-09-13T13:07:08.295Z,1007.49
2023-09-13T13:10:11.878Z,1007.51
2023-09-13T13:13:18.745Z,1007.48
2023-09-13T13:16:37.838Z,1007.55
2023-09-13T13:18:51.583Z,1007.50
2023-09-13T13:22:06.782Z,1007.54
2023-09-13T13:24:18.582Z,1007.55
2023-09-13T13:27:19.714Z,1007.57
2023-09-13T13:30:19.841Z,1007.59
2023-09-13T13:33:28.550Z,1007.75
2023-09-13T13:36:28.250Z,1007.71
2023-09-13T13:39:37.873Z,1007.73
2023-09-13T13:42:45.493Z,1007.76
2023-09-13T13:43:50.379Z,1007.77
2023-09-13T13:46:57.862Z,1007.80
2023-09-13T13:50:00.166Z,1007.84
2023-09-13T13:53:10.172Z,1007.79
2023-09-13T13:56:17.151Z,1007.85
2023-09-13T13:59:27.703Z,1007.92
2023-09-13T14:02:35.053Z,1007.95
2023-09-13T14:05:45.694Z,1008.08
2023-09-13T14:09:15.854Z,1008.12
2023-09-13T14:12:13.807Z,1008.19
2023-09-13T14:15:22.178Z,1008.09
2023-09-13T14:17:16.125Z,1008.25
2023-09-13T14:20:14.494Z,1008.30
2023-09-13T14:23:22.822Z,1008.32
2023-09-13T14:26:31.103Z,1008.42
2023-09-13T14:29:40.173Z,1008.50
2023-09-13T14:32:47.726Z,1008.62
2023-09-13T14:35:56.436Z,1008.55
2023-09-13T14:39:02.804Z,1008.69
2023-09-13T14:42:07.189Z,1008.73
2023-09-13T14:45:07.149Z,1008.87
2023-09-13T14:48:16.141Z,1008.85
2023-09-13T14:51:24.421Z,1008.85
2023-09-13T14:54:32.845Z,1008.86
2023-09-13T14:57:40.946Z,1008.90
2023-09-13T15:00:42.095Z,1009.15
2023-09-13T15:03:50.133Z,1009.24
2023-09-13T15:06:58.209Z,1009.29
2023-09-13T15:10:07.617Z,1009.28
2023-09-13T15:13:17.356Z,1009.38
2023-09-13T15:16:32.172Z,1009.44
2023-09-13T15:20:20.136Z,1009.47
2023-09-13T15:23:29.266Z,1009.51
2023-09-13T15:26:36.889Z,1009.57
2023-09-13T15:29:46.756Z,1009.64
2023-09-13T15:32:46.976Z,1009.69
2023-09-13T15:35:55.751Z,1009.84
2023-09-13T15:39:08.193Z,1009.87
2023-09-13T15:42:06.466Z,1010.02
2023-09-13T15:45:13.671Z,1009.95
2023-09-13T15:48:18.038Z,1010.07
2023-09-13T15:51:27.026Z,1010.06
2023-09-13T15:54:38.110Z,1010.08
2023-09-13T15:57:31.846Z,1010.12
2023-09-13T16:00:42.140Z,1010.20
2023-09-13T16:03:49.929Z,1010.27
2023-09-13T16:06:51.583Z,1010.25
2023-09-13T16:10:00.970Z,1010.32
2023-09-13T16:13:08.331Z,1010.41
2023-09-13T16:16:15.789Z,1010.43
2023-09-13T16:19:25.168Z,1010.50
2023-09-13T16:22:33.348Z,1010.45
2023-09-13T16:25:41.258Z,1010.56
2023-09-13T16:28:51.674Z,1010.57
2023-09-13T16:32:01.123Z,1010.55
2023-09-13T16:35:08.552Z,1010.63
2023-09-13T16:38:17.367Z,1010.61
2023-09-13T16:41:26.131Z,1010.66
2023-09-13T16:44:33.548Z,1010.68
2023-09-13T16:47:42.204Z,1010.78
2023-09-13T16:50:50.412Z,1010.72
2023-09-13T16:53:58.351Z,1010.63
2023-09-13T16:55:56.468Z,1010.70
2023-09-13T16:59:06.498Z,1010.64
2023-09-13T17:02:16.235Z,1010.71
2023-09-13T17:05:25.168Z,1010.82
2023-09-13T17:08:33.340Z,1010.89
2023-09-13T17:11:43.131Z,1010.88
2023-09-13T17:14:50.817Z,1010.95
2023-09-13T17:17:58.033Z,1010.98
2023-09-13T17:21:07.593Z,1011.09
2023-09-13T17:24:15.550Z,1011.14
2023-09-13T17:27:24.844Z,1011.23
2023-09-13T17:30:35.205Z,1011.37
2023-09-13T17:33:42.663Z,1011.44
2023-09-13T17:36:51.639Z,1011.51
2023-09-13T17:39:59.244Z,1011.65
2023-09-13T17:43:08.424Z,1011.58
2023-09-13T17:46:16.771Z,1011.55
2023-09-13T17:49:25.107Z,1011.62
2023-09-13T17:52:29.884Z,1011.66
2023-09-13T17:55:37.920Z,1011.65
2023-09-13T17:58:46.376Z,1011.71
2023-09-13T18:01:56.066Z,1011.87
2023-09-13T18:05:04.322Z,1011.82
2023-09-13T18:08:08.354Z,1011.87
2023-09-13T18:11:17.723Z,1011.88
2023-09-13T18:14:24.873Z,1011.96
2023-09-13T18:17:44.345Z,1011.99
2023-09-13T18:20:39.525Z,1012.06
2023-09-13T18:23:38.169Z,1012.08
2023-09-13T18:26:45.750Z,1012.17
2023-09-13T18:29:53.911Z,1012.18
2023-09-13T18:32:54.200Z,1012.13
2023-09-13T18:36:01.040Z,1012.11
2023-09-13T18:39:09.349Z,1012.09
2023-09-13T18:42:18.897Z,1012.09
2023-09-13T18:45:29.233Z,1012.20
2023-09-13T18:48:38.393Z,1012.19
2023-09-13T18:51:50.036Z,1012.28
2023-09-13T18:54:58.299Z,1012.26
2023-09-13T18:58:06.236Z,1012.30
2023-09-13T19:01:14.000Z,1012.32
2023-09-13T19:04:22.971Z,1012.38
2023-09-13T19:07:32.836Z,1012.44
2023-09-13T19:10:42.840Z,1012.48
2023-09-13T19:13:52.629Z,1012.47
2023-09-13T19:17:00.559Z,1012.61
2023-09-13T19:20:09.872Z,1012.66
2023-09-13T19:23:12.318Z,1012.66
2023-09-13T19:26:23.067Z,1012.54
2023-09-13T19:29:20.663Z,1012.59
2023-09-13T19:32:30.544Z,1012.69
2023-09-13T19:35:41.243Z,1012.75
2023-09-13T19:38:50.305Z,1012.86
2023-09-13T19:41:58.541Z,1012.84
2023-09-13T19:45:07.756Z,1012.91
2023-09-13T19:48:15.766Z,1012.86
2023-09-13T19:51:24.614Z,1012.82
2023-09-13T19:54:34.154Z,1012.97
2023-09-13T19:57:41.751Z,1013.02
2023-09-13T20:00:52.939Z,1012.98
2023-09-13T20:03:51.413Z,1013.01
2023-09-13T20:06:58.434Z,1013.05
2023-09-13T20:10:06.216Z,1013.07
2023-09-13T20:13:11.840Z,1012.98
2023-09-13T20:16:20.237Z,1013.03
2023-09-13T20:19:29.473Z,1012.99
2023-09-13T20:22:37.167Z,1012.99
2023-09-13T20:25:46.633Z,1013.05
2023-09-13T20:28:46.940Z,1013.05
2023-09-13T20:31:54.325Z,1013.04
2023-09-13T20:35:03.619Z,1013.11
2023-09-13T20:38:12.079Z,1013.13
2023-09-13T20:41:19.653Z,1013.19
2023-09-13T20:44:21.017Z,1013.16
2023-09-13T20:47:28.736Z,1013.15
2023-09-13T20:50:36.473Z,1013.21
2023-09-13T20:53:45.553Z,1013.23
2023-09-13T20:56:53.671Z,1013.34
2023-09-13T21:00:01.533Z,1013.38
2023-09-13T21:03:09.105Z,1013.40
2023-09-13T21:06:18.469Z,1013.45
2023-09-13T21:09:26.720Z,1013.46
2023-09-13T21:12:36.850Z,1013.51
2023-09-13T21:15:46.257Z,1013.48
2023-09-13T21:18:54.136Z,1013.52
2023-09-13T21:22:02.796Z,1013.49
2023-09-13T21:25:12.252Z,1013.49
2023-09-13T21:28:20.327Z,1013.57
2023-09-13T21:31:27.167Z,1013.59
2023-09-13T21:34:28.524Z,1013.60
2023-09-13T21:37:37.591Z,1013.63
2023-09-13T21:40:46.450Z,1013.63
2023-09-13T21:43:53.711Z,1013.63
2023-09-13T21:47:02.537Z,1013.67
2023-09-13T21:50:10.102Z,1013.68
2023-09-13T21:53:12.589Z,1013.66
2023-09-13T21:56:11.995Z,1013.64
2023-09-13T21:59:21.876Z,1013.75
2023-09-13T22:02:29.508Z,1013.79
2023-09-13T22:05:34.183Z,1013.77
2023-09-13T22:08:41.852Z,1013.85
2023-09-13T22:11:50.738Z,1013.83
2023-09-13T22:14:51.848Z,1013.79
2023-09-13T22:17:59.006Z,1013.87
2023-09-13T22:21:06.986Z,1013.89
2023-09-13T22:24:14.455Z,1013.86
2023-09-13T22:27:23.094Z,1013.86
2023-09-13T22:30:31.220Z,1013.85
2023-09-13T22:33:38.691Z,1013.87
2023-09-13T22:36:46.905Z,1013.84
2023-09-13T22:39:54.405Z,1013.86
2023-09-13T22:43:02.142Z,1013.81
2023-09-13T22:46:11.865Z,1013.80
2023-09-13T22:49:19.442Z,1013.79
2023-09-13T22:52:26.244Z,1013.77
2023-09-13T22:55:35.829Z,1013.85
2023-09-13T22:58:43.821Z,1013.84
2023-09-13T23:01:51.652Z,1013.87
2023-09-13T23:04:58.828Z,1013.91
2023-09-13T23:08:07.726Z,1013.93
2023-09-13T23:11:11.707Z,1013.95
2023-09-13T23:14:19.432Z,1013.85
2023-09-13T23:17:29.262Z,1013.91
2023-09-13T23:20:29.907Z,1013.88
2023-09-13T23:23:37.753Z,1013.91
2023-09-13T23:26:47.065Z,1013.89
2023-09-13T23:29:55.871Z,1013.87
2023-09-13T23:33:02.766Z,1013.92
2023-09-13T23:36:12.468Z,1013.88
2023-09-13T23:39:20.691Z,1013.91
2023-09-13T23:42:28.867Z,1013.85
2023-09-13T23:45:36.733Z,1013.95
2023-09-13T23:48:46.429Z,1013.94
2023-09-13T23:51:54.617Z,1013.98
2023-09-13T23:55:04.136Z,1014.01
2023-09-13T23:58:13.021Z,1014.04
